sensor_id;sensor_type;location;lat;lon;timestamp;temperature;humidity
51825;DHT22;37879;52.986;6.282;2024-02-14T00:02:11;6.50;99.90
51825;DHT22;37879;52.986;6.282;2024-02-14T00:04:37;6.60;99.90
51825;DHT22;37879;52.986;6.282;2024-02-14T00:07:04;6.50;99.90
51825;DHT22;37879;52.986;6.282;2024-02-14T00:09:30;6.60;99.90
51825;DHT22;37879;52.986;6.282;2024-02-14T00:11:56;6.60;99.90
51825;DHT22;37879;52.986;6.282;2024-02-14T00:14:22;6.60;99.90
51825;DHT22;37879;52.986;6.282;2024-02-14T00:16:47;6.60;99.90
51825;DHT22;37879;52.986;6.282;2024-02-14T00:19:13;6.60;99.90
51825;DHT22;37879;52.986;6.282;2024-02-14T00:21:39;6.60;99.90
51825;DHT22;37879;52.986;6.282;2024-02-14T00:24:06;6.70;99.90
51825;DHT22;37879;52.986;6.282;2024-02-14T00:26:32;6.60;99.90
51825;DHT22;37879;52.986;6.282;2024-02-14T00:28:57;6.60;99.90
51825;DHT22;37879;52.986;6.282;2024-02-14T00:31:23;6.80;99.90
51825;DHT22;37879;52.986;6.282;2024-02-14T00:33:49;6.60;99.90
51825;DHT22;37879;52.986;6.282;2024-02-14T00:36:14;6.70;99.90
51825;DHT22;37879;52.986;6.282;2024-02-14T00:38:40;6.70;99.90
51825;DHT22;37879;52.986;6.282;2024-02-14T00:41:06;6.70;99.90
51825;DHT22;37879;52.986;6.282;2024-02-14T00:43:31;6.70;99.90
51825;DHT22;37879;52.986;6.282;2024-02-14T00:45:57;6.70;99.90
51825;DHT22;37879;52.986;6.282;2024-02-14T00:48:23;6.70;99.90
51825;DHT22;37879;52.986;6.282;2024-02-14T00:50:49;7.00;99.90
51825;DHT22;37879;52.986;6.282;2024-02-14T00:53:14;6.70;99.90
51825;DHT22;37879;52.986;6.282;2024-02-14T00:55:40;6.80;99.90
51825;DHT22;37879;52.986;6.282;2024-02-14T00:58:06;6.80;99.90
51825;DHT22;37879;52.986;6.282;2024-02-14T01:00:32;6.80;99.90
51825;DHT22;37879;52.986;6.282;2024-02-14T01:02:58;6.80;99.90
51825;DHT22;37879;52.986;6.282;2024-02-14T01:05:24;6.80;99.90
51825;DHT22;37879;52.986;6.282;2024-02-14T01:07:50;6.80;99.90
51825;DHT22;37879;52.986;6.282;2024-02-14T01:10:16;6.80;99.90
51825;DHT22;37879;52.986;6.282;2024-02-14T01:12:42;6.80;99.90
51825;DHT22;37879;52.986;6.282;2024-02-14T01:15:08;6.90;99.90
51825;DHT22;37879;52.986;6.282;2024-02-14T01:17:33;6.90;99.90
51825;DHT22;37879;52.986;6.282;2024-02-14T01:20:02;6.90;99.90
51825;DHT22;37879;52.986;6.282;2024-02-14T01:22:28;6.90;99.90
51825;DHT22;37879;52.986;6.282;2024-02-14T01:24:54;6.90;99.90
51825;DHT22;37879;52.986;6.282;2024-02-14T01:27:20;6.90;99.90
51825;DHT22;37879;52.986;6.282;2024-02-14T01:29:48;7.00;99.90
51825;DHT22;37879;52.986;6.282;2024-02-14T01:32:14;7.00;99.90
51825;DHT22;37879;52.986;6.282;2024-02-14T01:34:39;6.20;99.90
51825;DHT22;37879;52.986;6.282;2024-02-14T01:37:06;7.00;99.90
51825;DHT22;37879;52.986;6.282;2024-02-14T01:39:32;7.00;99.90
51825;DHT22;37879;52.986;6.282;2024-02-14T01:41:58;7.20;99.90
51825;DHT22;37879;52.986;6.282;2024-02-14T01:44:23;7.50;99.90
51825;DHT22;37879;52.986;6.282;2024-02-14T01:46:49;7.10;99.90
51825;DHT22;37879;52.986;6.282;2024-02-14T01:49:15;7.10;99.90
51825;DHT22;37879;52.986;6.282;2024-02-14T01:51:43;7.30;99.90
51825;DHT22;37879;52.986;6.282;2024-02-14T01:54:11;7.10;99.90
51825;DHT22;37879;52.986;6.282;2024-02-14T01:56:38;7.20;99.90
51825;DHT22;37879;52.986;6.282;2024-02-14T01:59:05;7.30;99.90
51825;DHT22;37879;52.986;6.282;2024-02-14T02:01:34;7.20;99.90
51825;DHT22;37879;52.986;6.282;2024-02-14T02:03:59;7.30;99.90
51825;DHT22;37879;52.986;6.282;2024-02-14T02:06:25;7.30;99.90
51825;DHT22;37879;52.986;6.282;2024-02-14T02:08:54;7.40;99.90
51825;DHT22;37879;52.986;6.282;2024-02-14T02:11:20;7.40;99.90
51825;DHT22;37879;52.986;6.282;2024-02-14T02:13:45;7.40;99.90
51825;DHT22;37879;52.986;6.282;2024-02-14T02:16:11;7.50;99.90
51825;DHT22;37879;52.986;6.282;2024-02-14T02:18:38;7.50;99.90
51825;DHT22;37879;52.986;6.282;2024-02-14T02:21:03;7.50;99.90
51825;DHT22;37879;52.986;6.282;2024-02-14T02:23:33;7.40;99.90
51825;DHT22;37879;52.986;6.282;2024-02-14T02:25:59;7.50;99.90
51825;DHT22;37879;52.986;6.282;2024-02-14T02:28:24;7.60;99.90
51825;DHT22;37879;52.986;6.282;2024-02-14T02:30:50;7.80;99.90
51825;DHT22;37879;52.986;6.282;2024-02-14T02:33:18;7.60;99.90
51825;DHT22;37879;52.986;6.282;2024-02-14T02:35:43;7.60;99.90
51825;DHT22;37879;52.986;6.282;2024-02-14T02:38:11;7.70;99.90
51825;DHT22;37879;52.986;6.282;2024-02-14T02:40:37;7.70;99.90
51825;DHT22;37879;52.986;6.282;2024-02-14T02:43:02;7.70;99.90
51825;DHT22;37879;52.986;6.282;2024-02-14T02:45:28;7.80;99.90
51825;DHT22;37879;52.986;6.282;2024-02-14T02:47:54;7.80;99.90
51825;DHT22;37879;52.986;6.282;2024-02-14T02:50:21;7.80;99.90
51825;DHT22;37879;52.986;6.282;2024-02-14T02:52:48;7.80;99.90
51825;DHT22;37879;52.986;6.282;2024-02-14T02:55:13;7.80;99.90
51825;DHT22;37879;52.986;6.282;2024-02-14T02:57:42;7.80;99.90
51825;DHT22;37879;52.986;6.282;2024-02-14T03:00:09;7.90;99.90
51825;DHT22;37879;52.986;6.282;2024-02-14T03:02:38;7.90;99.90
51825;DHT22;37879;52.986;6.282;2024-02-14T03:05:07;7.90;99.90
51825;DHT22;37879;52.986;6.282;2024-02-14T03:07:36;7.90;99.90
51825;DHT22;37879;52.986;6.282;2024-02-14T03:10:02;7.90;99.90
51825;DHT22;37879;52.986;6.282;2024-02-14T03:12:29;7.90;99.90
51825;DHT22;37879;52.986;6.282;2024-02-14T03:14:56;8.00;99.90
51825;DHT22;37879;52.986;6.282;2024-02-14T03:17:23;8.00;99.90
51825;DHT22;37879;52.986;6.282;2024-02-14T03:19:49;8.00;99.90
51825;DHT22;37879;52.986;6.282;2024-02-14T03:22:17;8.00;99.90
51825;DHT22;37879;52.986;6.282;2024-02-14T03:24:44;8.00;99.90
51825;DHT22;37879;52.986;6.282;2024-02-14T03:27:12;8.10;99.90
51825;DHT22;37879;52.986;6.282;2024-02-14T03:29:38;8.10;99.90
51825;DHT22;37879;52.986;6.282;2024-02-14T03:32:05;8.10;99.90
51825;DHT22;37879;52.986;6.282;2024-02-14T03:34:31;8.20;99.90
51825;DHT22;37879;52.986;6.282;2024-02-14T03:37:01;8.20;99.90
51825;DHT22;37879;52.986;6.282;2024-02-14T03:39:31;8.20;99.90
51825;DHT22;37879;52.986;6.282;2024-02-14T03:41:57;8.30;99.90
51825;DHT22;37879;52.986;6.282;2024-02-14T03:44:23;7.30;99.90
51825;DHT22;37879;52.986;6.282;2024-02-14T03:46:49;8.40;99.90
51825;DHT22;37879;52.986;6.282;2024-02-14T03:49:15;8.40;99.90
51825;DHT22;37879;52.986;6.282;2024-02-14T03:51:41;8.50;99.90
51825;DHT22;37879;52.986;6.282;2024-02-14T03:54:06;8.50;99.90
51825;DHT22;37879;52.986;6.282;2024-02-14T03:56:32;8.50;99.90
51825;DHT22;37879;52.986;6.282;2024-02-14T03:59:01;8.50;99.90
51825;DHT22;37879;52.986;6.282;2024-02-14T04:01:28;8.60;99.90
51825;DHT22;37879;52.986;6.282;2024-02-14T04:03:54;8.60;99.90
51825;DHT22;37879;52.986;6.282;2024-02-14T04:06:20;8.60;99.90
51825;DHT22;37879;52.986;6.282;2024-02-14T04:08:46;8.60;99.90
51825;DHT22;37879;52.986;6.282;2024-02-14T04:11:11;8.70;99.90
51825;DHT22;37879;52.986;6.282;2024-02-14T04:13:39;8.70;99.90
51825;DHT22;37879;52.986;6.282;2024-02-14T04:16:05;8.80;99.90
51825;DHT22;37879;52.986;6.282;2024-02-14T04:18:31;8.70;99.90
51825;DHT22;37879;52.986;6.282;2024-02-14T04:20:56;8.80;99.90
51825;DHT22;37879;52.986;6.282;2024-02-14T04:23:22;8.80;99.90
51825;DHT22;37879;52.986;6.282;2024-02-14T04:25:50;8.90;99.90
51825;DHT22;37879;52.986;6.282;2024-02-14T04:28:15;8.90;99.90
51825;DHT22;37879;52.986;6.282;2024-02-14T04:30:41;8.90;99.90
51825;DHT22;37879;52.986;6.282;2024-02-14T04:33:07;8.90;99.90
51825;DHT22;37879;52.986;6.282;2024-02-14T04:35:33;9.00;99.90
51825;DHT22;37879;52.986;6.282;2024-02-14T04:37:59;9.00;99.90
51825;DHT22;37879;52.986;6.282;2024-02-14T04:40:25;9.00;99.90
51825;DHT22;37879;52.986;6.282;2024-02-14T04:42:50;9.00;99.90
51825;DHT22;37879;52.986;6.282;2024-02-14T04:45:16;9.00;99.90
51825;DHT22;37879;52.986;6.282;2024-02-14T04:47:42;9.00;99.90
51825;DHT22;37879;52.986;6.282;2024-02-14T04:50:09;9.10;99.90
51825;DHT22;37879;52.986;6.282;2024-02-14T04:52:34;9.10;99.90
51825;DHT22;37879;52.986;6.282;2024-02-14T04:55:00;9.10;99.90
51825;DHT22;37879;52.986;6.282;2024-02-14T04:57:26;9.10;99.90
51825;DHT22;37879;52.986;6.282;2024-02-14T04:59:51;9.10;99.90
51825;DHT22;37879;52.986;6.282;2024-02-14T05:02:17;9.10;99.90
51825;DHT22;37879;52.986;6.282;2024-02-14T05:04:43;9.10;99.90
51825;DHT22;37879;52.986;6.282;2024-02-14T05:07:09;9.10;99.90
51825;DHT22;37879;52.986;6.282;2024-02-14T05:09:35;9.10;99.90
51825;DHT22;37879;52.986;6.282;2024-02-14T05:12:00;9.20;99.90
51825;DHT22;37879;52.986;6.282;2024-02-14T05:14:26;9.10;99.90
51825;DHT22;37879;52.986;6.282;2024-02-14T05:16:55;9.20;99.90
51825;DHT22;37879;52.986;6.282;2024-02-14T05:19:21;9.20;99.90
51825;DHT22;37879;52.986;6.282;2024-02-14T05:21:47;9.20;99.90
51825;DHT22;37879;52.986;6.282;2024-02-14T05:24:12;9.20;99.90
51825;DHT22;37879;52.986;6.282;2024-02-14T05:26:38;9.20;99.90
51825;DHT22;37879;52.986;6.282;2024-02-14T05:29:04;9.20;99.90
51825;DHT22;37879;52.986;6.282;2024-02-14T05:31:44;9.30;99.90
51825;DHT22;37879;52.986;6.282;2024-02-14T05:34:10;9.30;99.90
51825;DHT22;37879;52.986;6.282;2024-02-14T05:36:36;9.30;99.90
51825;DHT22;37879;52.986;6.282;2024-02-14T05:39:02;9.30;99.90
51825;DHT22;37879;52.986;6.282;2024-02-14T05:41:28;9.30;99.90
51825;DHT22;37879;52.986;6.282;2024-02-14T05:43:54;9.30;99.90
51825;DHT22;37879;52.986;6.282;2024-02-14T05:46:19;9.30;99.90
51825;DHT22;37879;52.986;6.282;2024-02-14T05:48:46;9.30;99.90
51825;DHT22;37879;52.986;6.282;2024-02-14T05:51:11;9.40;99.90
51825;DHT22;37879;52.986;6.282;2024-02-14T05:53:37;9.40;99.90
51825;DHT22;37879;52.986;6.282;2024-02-14T05:56:03;9.40;99.90
51825;DHT22;37879;52.986;6.282;2024-02-14T05:58:29;9.40;99.90
51825;DHT22;37879;52.986;6.282;2024-02-14T06:00:54;9.40;99.90
51825;DHT22;37879;52.986;6.282;2024-02-14T06:03:21;9.40;99.90
51825;DHT22;37879;52.986;6.282;2024-02-14T06:05:47;9.40;99.90
51825;DHT22;37879;52.986;6.282;2024-02-14T06:08:12;9.40;99.90
51825;DHT22;37879;52.986;6.282;2024-02-14T06:10:38;9.40;99.90
51825;DHT22;37879;52.986;6.282;2024-02-14T06:13:05;9.40;99.90
51825;DHT22;37879;52.986;6.282;2024-02-14T06:15:31;9.40;99.90
51825;DHT22;37879;52.986;6.282;2024-02-14T06:17:56;9.40;99.90
51825;DHT22;37879;52.986;6.282;2024-02-14T06:20:23;9.50;99.90
51825;DHT22;37879;52.986;6.282;2024-02-14T06:22:48;9.50;99.90
51825;DHT22;37879;52.986;6.282;2024-02-14T06:25:14;9.40;99.90
51825;DHT22;37879;52.986;6.282;2024-02-14T06:27:41;9.40;99.90
51825;DHT22;37879;52.986;6.282;2024-02-14T06:30:08;9.40;99.90
51825;DHT22;37879;52.986;6.282;2024-02-14T06:32:35;9.40;99.90
51825;DHT22;37879;52.986;6.282;2024-02-14T06:35:01;9.50;99.90
51825;DHT22;37879;52.986;6.282;2024-02-14T06:37:27;9.50;99.90
51825;DHT22;37879;52.986;6.282;2024-02-14T06:39:53;9.50;99.90
51825;DHT22;37879;52.986;6.282;2024-02-14T06:42:18;9.40;99.90
51825;DHT22;37879;52.986;6.282;2024-02-14T06:44:45;9.50;99.90
51825;DHT22;37879;52.986;6.282;2024-02-14T06:47:11;9.50;99.90
51825;DHT22;37879;52.986;6.282;2024-02-14T06:49:36;9.50;99.90
51825;DHT22;37879;52.986;6.282;2024-02-14T06:52:03;9.50;99.90
51825;DHT22;37879;52.986;6.282;2024-02-14T06:54:29;9.50;99.90
51825;DHT22;37879;52.986;6.282;2024-02-14T06:56:55;9.50;99.90
51825;DHT22;37879;52.986;6.282;2024-02-14T06:59:20;9.50;99.90
51825;DHT22;37879;52.986;6.282;2024-02-14T07:01:46;9.50;99.90
51825;DHT22;37879;52.986;6.282;2024-02-14T07:04:12;9.50;99.90
51825;DHT22;37879;52.986;6.282;2024-02-14T07:06:37;9.50;99.90
51825;DHT22;37879;52.986;6.282;2024-02-14T07:09:03;9.50;99.90
51825;DHT22;37879;52.986;6.282;2024-02-14T07:11:29;9.60;99.90
51825;DHT22;37879;52.986;6.282;2024-02-14T07:13:56;9.50;99.90
51825;DHT22;37879;52.986;6.282;2024-02-14T07:16:22;9.60;99.90
51825;DHT22;37879;52.986;6.282;2024-02-14T07:18:47;9.60;99.90
51825;DHT22;37879;52.986;6.282;2024-02-14T07:21:13;9.60;99.90
51825;DHT22;37879;52.986;6.282;2024-02-14T07:23:39;9.60;99.90
51825;DHT22;37879;52.986;6.282;2024-02-14T07:26:04;9.70;99.90
51825;DHT22;37879;52.986;6.282;2024-02-14T07:28:30;9.70;99.90
51825;DHT22;37879;52.986;6.282;2024-02-14T07:30:57;9.70;99.90
51825;DHT22;37879;52.986;6.282;2024-02-14T07:33:23;9.70;99.90
51825;DHT22;37879;52.986;6.282;2024-02-14T07:35:49;9.70;99.90
51825;DHT22;37879;52.986;6.282;2024-02-14T07:38:15;9.70;99.90
51825;DHT22;37879;52.986;6.282;2024-02-14T07:40:42;9.70;99.90
51825;DHT22;37879;52.986;6.282;2024-02-14T07:43:08;9.70;99.90
51825;DHT22;37879;52.986;6.282;2024-02-14T07:45:33;11.00;99.90
51825;DHT22;37879;52.986;6.282;2024-02-14T07:47:59;9.80;99.90
51825;DHT22;37879;52.986;6.282;2024-02-14T07:50:25;9.80;99.90
51825;DHT22;37879;52.986;6.282;2024-02-14T07:52:52;9.80;99.90
51825;DHT22;37879;52.986;6.282;2024-02-14T07:55:18;9.80;99.90
51825;DHT22;37879;52.986;6.282;2024-02-14T07:57:44;9.80;99.90
51825;DHT22;37879;52.986;6.282;2024-02-14T08:00:10;9.90;99.90
51825;DHT22;37879;52.986;6.282;2024-02-14T08:02:36;9.90;99.90
51825;DHT22;37879;52.986;6.282;2024-02-14T08:05:05;9.90;99.90
51825;DHT22;37879;52.986;6.282;2024-02-14T08:07:31;9.90;99.90
51825;DHT22;37879;52.986;6.282;2024-02-14T08:09:57;9.90;99.90
51825;DHT22;37879;52.986;6.282;2024-02-14T08:12:23;9.90;99.90
51825;DHT22;37879;52.986;6.282;2024-02-14T08:14:50;10.00;99.90
51825;DHT22;37879;52.986;6.282;2024-02-14T08:17:16;10.00;99.90
51825;DHT22;37879;52.986;6.282;2024-02-14T08:19:41;10.00;99.90
51825;DHT22;37879;52.986;6.282;2024-02-14T08:22:07;9.90;99.90
51825;DHT22;37879;52.986;6.282;2024-02-14T08:24:33;10.00;99.90
51825;DHT22;37879;52.986;6.282;2024-02-14T08:26:59;10.00;99.90
51825;DHT22;37879;52.986;6.282;2024-02-14T08:29:24;10.00;99.90
51825;DHT22;37879;52.986;6.282;2024-02-14T08:31:50;10.00;99.90
51825;DHT22;37879;52.986;6.282;2024-02-14T08:34:16;10.00;99.90
51825;DHT22;37879;52.986;6.282;2024-02-14T08:36:42;10.00;99.90
51825;DHT22;37879;52.986;6.282;2024-02-14T08:39:08;10.00;99.90
51825;DHT22;37879;52.986;6.282;2024-02-14T08:41:39;10.00;99.90
51825;DHT22;37879;52.986;6.282;2024-02-14T08:44:08;10.00;99.90
51825;DHT22;37879;52.986;6.282;2024-02-14T08:46:34;10.00;99.90
51825;DHT22;37879;52.986;6.282;2024-02-14T08:49:01;10.10;99.90
51825;DHT22;37879;52.986;6.282;2024-02-14T08:51:37;10.10;99.90
51825;DHT22;37879;52.986;6.282;2024-02-14T08:54:04;10.10;99.90
51825;DHT22;37879;52.986;6.282;2024-02-14T08:56:33;10.10;99.90
51825;DHT22;37879;52.986;6.282;2024-02-14T08:59:02;10.10;99.90
51825;DHT22;37879;52.986;6.282;2024-02-14T09:01:31;10.20;99.90
51825;DHT22;37879;52.986;6.282;2024-02-14T09:03:57;10.20;99.90
51825;DHT22;37879;52.986;6.282;2024-02-14T09:06:24;10.20;99.90
51825;DHT22;37879;52.986;6.282;2024-02-14T09:08:52;10.20;99.90
51825;DHT22;37879;52.986;6.282;2024-02-14T09:11:19;10.20;99.90
51825;DHT22;37879;52.986;6.282;2024-02-14T09:13:45;10.30;99.90
51825;DHT22;37879;52.986;6.282;2024-02-14T09:16:13;10.30;99.90
51825;DHT22;37879;52.986;6.282;2024-02-14T09:18:41;10.30;99.90
51825;DHT22;37879;52.986;6.282;2024-02-14T09:21:07;10.30;99.90
51825;DHT22;37879;52.986;6.282;2024-02-14T09:23:33;10.30;99.90
51825;DHT22;37879;52.986;6.282;2024-02-14T09:25:58;10.40;99.90
51825;DHT22;37879;52.986;6.282;2024-02-14T09:28:24;10.30;99.90
51825;DHT22;37879;52.986;6.282;2024-02-14T09:30:51;10.40;99.90
51825;DHT22;37879;52.986;6.282;2024-02-14T09:33:16;10.50;99.90
51825;DHT22;37879;52.986;6.282;2024-02-14T09:35:42;10.40;99.90
51825;DHT22;37879;52.986;6.282;2024-02-14T09:38:13;10.50;99.90
51825;DHT22;37879;52.986;6.282;2024-02-14T09:40:42;10.50;99.90
51825;DHT22;37879;52.986;6.282;2024-02-14T09:43:23;10.50;99.90
51825;DHT22;37879;52.986;6.282;2024-02-14T09:45:51;10.50;99.90
51825;DHT22;37879;52.986;6.282;2024-02-14T09:48:19;10.60;99.90
51825;DHT22;37879;52.986;6.282;2024-02-14T09:50:48;10.60;99.90
51825;DHT22;37879;52.986;6.282;2024-02-14T09:53:14;10.60;99.90
51825;DHT22;37879;52.986;6.282;2024-02-14T09:55:41;10.60;99.90
51825;DHT22;37879;52.986;6.282;2024-02-14T09:58:07;10.70;99.90
51825;DHT22;37879;52.986;6.282;2024-02-14T10:00:35;10.70;99.90
51825;DHT22;37879;52.986;6.282;2024-02-14T10:03:04;10.70;99.90
51825;DHT22;37879;52.986;6.282;2024-02-14T10:05:31;10.70;99.90
51825;DHT22;37879;52.986;6.282;2024-02-14T10:07:57;10.70;99.90
51825;DHT22;37879;52.986;6.282;2024-02-14T10:10:24;10.80;99.90
51825;DHT22;37879;52.986;6.282;2024-02-14T10:12:50;10.80;99.90
51825;DHT22;37879;52.986;6.282;2024-02-14T10:15:16;10.80;99.90
51825;DHT22;37879;52.986;6.282;2024-02-14T10:17:43;10.80;99.90
51825;DHT22;37879;52.986;6.282;2024-02-14T10:20:09;10.80;99.90
51825;DHT22;37879;52.986;6.282;2024-02-14T10:22:37;10.90;99.90
51825;DHT22;37879;52.986;6.282;2024-02-14T10:25:04;10.90;99.90
51825;DHT22;37879;52.986;6.282;2024-02-14T10:27:39;10.90;99.90
51825;DHT22;37879;52.986;6.282;2024-02-14T10:30:08;10.90;99.90
51825;DHT22;37879;52.986;6.282;2024-02-14T10:32:41;10.90;99.90
51825;DHT22;37879;52.986;6.282;2024-02-14T10:35:13;10.90;99.90
51825;DHT22;37879;52.986;6.282;2024-02-14T10:37:39;10.90;99.90
51825;DHT22;37879;52.986;6.282;2024-02-14T10:40:05;12.20;99.90
51825;DHT22;37879;52.986;6.282;2024-02-14T10:42:32;10.90;99.90
51825;DHT22;37879;52.986;6.282;2024-02-14T10:45:01;10.90;99.90
51825;DHT22;37879;52.986;6.282;2024-02-14T10:47:32;11.00;99.90
51825;DHT22;37879;52.986;6.282;2024-02-14T10:50:06;11.00;99.90
51825;DHT22;37879;52.986;6.282;2024-02-14T10:52:34;11.00;99.90
51825;DHT22;37879;52.986;6.282;2024-02-14T10:55:03;11.00;99.90
51825;DHT22;37879;52.986;6.282;2024-02-14T10:57:29;11.10;99.90
51825;DHT22;37879;52.986;6.282;2024-02-14T10:59:58;11.00;99.90
51825;DHT22;37879;52.986;6.282;2024-02-14T11:02:25;11.10;99.90
51825;DHT22;37879;52.986;6.282;2024-02-14T11:04:58;11.10;99.90
51825;DHT22;37879;52.986;6.282;2024-02-14T11:07:27;11.10;99.90
51825;DHT22;37879;52.986;6.282;2024-02-14T11:12:35;11.10;99.90
51825;DHT22;37879;52.986;6.282;2024-02-14T11:15:12;11.10;99.90
51825;DHT22;37879;52.986;6.282;2024-02-14T11:17:41;11.10;99.90
51825;DHT22;37879;52.986;6.282;2024-02-14T11:20:16;11.10;99.90
51825;DHT22;37879;52.986;6.282;2024-02-14T11:23:02;11.10;99.90
51825;DHT22;37879;52.986;6.282;2024-02-14T11:25:29;11.20;99.90
51825;DHT22;37879;52.986;6.282;2024-02-14T11:27:57;11.20;99.90
51825;DHT22;37879;52.986;6.282;2024-02-14T11:30:34;11.20;99.90
51825;DHT22;37879;52.986;6.282;2024-02-14T11:33:26;11.30;99.90
51825;DHT22;37879;52.986;6.282;2024-02-14T11:35:53;11.30;99.90
51825;DHT22;37879;52.986;6.282;2024-02-14T11:38:20;11.30;99.90
51825;DHT22;37879;52.986;6.282;2024-02-14T11:40:47;11.40;99.90
51825;DHT22;37879;52.986;6.282;2024-02-14T11:43:15;11.30;99.90
51825;DHT22;37879;52.986;6.282;2024-02-14T11:45:43;11.30;99.90
51825;DHT22;37879;52.986;6.282;2024-02-14T11:48:10;11.30;99.90
51825;DHT22;37879;52.986;6.282;2024-02-14T11:50:38;11.30;99.90
51825;DHT22;37879;52.986;6.282;2024-02-14T11:53:04;11.40;99.90
51825;DHT22;37879;52.986;6.282;2024-02-14T11:55:34;11.30;99.90
51825;DHT22;37879;52.986;6.282;2024-02-14T11:58:02;11.40;99.90
51825;DHT22;37879;52.986;6.282;2024-02-14T12:00:27;11.30;99.90
51825;DHT22;37879;52.986;6.282;2024-02-14T12:02:53;11.30;99.90
51825;DHT22;37879;52.986;6.282;2024-02-14T12:05:19;11.30;99.90
51825;DHT22;37879;52.986;6.282;2024-02-14T12:07:45;11.30;99.90
51825;DHT22;37879;52.986;6.282;2024-02-14T12:10:12;11.00;99.90
51825;DHT22;37879;52.986;6.282;2024-02-14T12:12:38;11.30;99.90
51825;DHT22;37879;52.986;6.282;2024-02-14T12:15:04;11.30;99.90
51825;DHT22;37879;52.986;6.282;2024-02-14T12:17:31;11.40;99.90
51825;DHT22;37879;52.986;6.282;2024-02-14T12:20:10;11.40;99.90
51825;DHT22;37879;52.986;6.282;2024-02-14T12:22:37;11.40;99.90
51825;DHT22;37879;52.986;6.282;2024-02-14T12:25:03;11.40;99.90
51825;DHT22;37879;52.986;6.282;2024-02-14T12:27:34;11.40;99.90
51825;DHT22;37879;52.986;6.282;2024-02-14T12:30:03;11.40;99.90
51825;DHT22;37879;52.986;6.282;2024-02-14T12:32:29;11.40;99.90
51825;DHT22;37879;52.986;6.282;2024-02-14T12:35:01;11.40;99.90
51825;DHT22;37879;52.986;6.282;2024-02-14T12:37:27;11.40;99.90
51825;DHT22;37879;52.986;6.282;2024-02-14T12:39:52;11.50;99.90
51825;DHT22;37879;52.986;6.282;2024-02-14T12:42:19;11.50;99.90
51825;DHT22;37879;52.986;6.282;2024-02-14T12:44:51;11.40;99.90
51825;DHT22;37879;52.986;6.282;2024-02-14T12:47:18;12.40;99.90
51825;DHT22;37879;52.986;6.282;2024-02-14T12:49:44;11.50;99.90
51825;DHT22;37879;52.986;6.282;2024-02-14T12:52:10;11.50;99.90
51825;DHT22;37879;52.986;6.282;2024-02-14T12:54:36;11.50;99.90
51825;DHT22;37879;52.986;6.282;2024-02-14T12:57:02;11.50;99.90
51825;DHT22;37879;52.986;6.282;2024-02-14T12:59:28;11.50;99.90
51825;DHT22;37879;52.986;6.282;2024-02-14T13:01:54;11.50;99.90
51825;DHT22;37879;52.986;6.282;2024-02-14T13:04:19;11.50;99.90
51825;DHT22;37879;52.986;6.282;2024-02-14T13:06:45;11.50;99.90
51825;DHT22;37879;52.986;6.282;2024-02-14T13:09:13;11.50;99.90
51825;DHT22;37879;52.986;6.282;2024-02-14T13:11:40;11.50;99.90
51825;DHT22;37879;52.986;6.282;2024-02-14T13:14:07;11.50;99.90
51825;DHT22;37879;52.986;6.282;2024-02-14T13:16:32;11.50;99.90
51825;DHT22;37879;52.986;6.282;2024-02-14T13:18:58;11.50;99.90
51825;DHT22;37879;52.986;6.282;2024-02-14T13:21:24;11.50;99.90
51825;DHT22;37879;52.986;6.282;2024-02-14T13:23:49;11.40;99.90
51825;DHT22;37879;52.986;6.282;2024-02-14T13:26:15;11.50;99.90
51825;DHT22;37879;52.986;6.282;2024-02-14T13:28:41;11.40;99.90
51825;DHT22;37879;52.986;6.282;2024-02-14T13:31:06;10.60;99.90
51825;DHT22;37879;52.986;6.282;2024-02-14T13:33:32;11.40;99.90
51825;DHT22;37879;52.986;6.282;2024-02-14T13:35:58;11.40;99.90
51825;DHT22;37879;52.986;6.282;2024-02-14T13:38:23;11.40;99.90
51825;DHT22;37879;52.986;6.282;2024-02-14T13:40:49;11.40;99.90
51825;DHT22;37879;52.986;6.282;2024-02-14T13:43:15;11.40;99.90
51825;DHT22;37879;52.986;6.282;2024-02-14T13:45:45;11.40;99.90
51825;DHT22;37879;52.986;6.282;2024-02-14T13:48:13;11.50;99.90
51825;DHT22;37879;52.986;6.282;2024-02-14T13:50:39;11.50;99.90
51825;DHT22;37879;52.986;6.282;2024-02-14T13:53:07;11.50;99.90
51825;DHT22;37879;52.986;6.282;2024-02-14T13:55:33;10.40;99.90
51825;DHT22;37879;52.986;6.282;2024-02-14T13:57:58;11.50;99.90
51825;DHT22;37879;52.986;6.282;2024-02-14T14:00:24;11.50;99.90
51825;DHT22;37879;52.986;6.282;2024-02-14T14:02:50;11.40;99.90
51825;DHT22;37879;52.986;6.282;2024-02-14T14:05:16;12.10;99.90
51825;DHT22;37879;52.986;6.282;2024-02-14T14:07:41;11.50;99.90
51825;DHT22;37879;52.986;6.282;2024-02-14T14:10:08;11.40;99.90
51825;DHT22;37879;52.986;6.282;2024-02-14T14:12:35;11.40;99.90
51825;DHT22;37879;52.986;6.282;2024-02-14T14:15:01;11.40;99.90
51825;DHT22;37879;52.986;6.282;2024-02-14T14:17:28;11.40;99.90
51825;DHT22;37879;52.986;6.282;2024-02-14T14:19:54;11.40;99.90
51825;DHT22;37879;52.986;6.282;2024-02-14T14:22:20;11.40;99.90
51825;DHT22;37879;52.986;6.282;2024-02-14T14:24:46;11.50;99.90
51825;DHT22;37879;52.986;6.282;2024-02-14T14:27:12;11.50;99.90
51825;DHT22;37879;52.986;6.282;2024-02-14T14:29:43;11.50;99.90
51825;DHT22;37879;52.986;6.282;2024-02-14T14:32:11;11.50;99.90
51825;DHT22;37879;52.986;6.282;2024-02-14T14:34:37;11.50;99.90
51825;DHT22;37879;52.986;6.282;2024-02-14T14:37:03;11.50;99.90
51825;DHT22;37879;52.986;6.282;2024-02-14T14:39:29;11.50;99.90
51825;DHT22;37879;52.986;6.282;2024-02-14T14:41:56;11.50;99.90
51825;DHT22;37879;52.986;6.282;2024-02-14T14:44:27;11.50;99.90
51825;DHT22;37879;52.986;6.282;2024-02-14T14:46:53;11.50;99.90
51825;DHT22;37879;52.986;6.282;2024-02-14T14:49:19;11.50;99.90
51825;DHT22;37879;52.986;6.282;2024-02-14T14:51:45;11.50;99.90
51825;DHT22;37879;52.986;6.282;2024-02-14T14:54:12;11.50;99.90
51825;DHT22;37879;52.986;6.282;2024-02-14T14:56:38;11.50;99.90
51825;DHT22;37879;52.986;6.282;2024-02-14T14:59:03;11.50;99.90
51825;DHT22;37879;52.986;6.282;2024-02-14T15:01:30;11.50;99.90
51825;DHT22;37879;52.986;6.282;2024-02-14T15:03:55;11.50;99.90
51825;DHT22;37879;52.986;6.282;2024-02-14T15:06:21;11.50;99.90
51825;DHT22;37879;52.986;6.282;2024-02-14T15:08:47;11.50;99.90
51825;DHT22;37879;52.986;6.282;2024-02-14T15:11:13;11.50;99.90
51825;DHT22;37879;52.986;6.282;2024-02-14T15:13:42;11.60;99.90
51825;DHT22;37879;52.986;6.282;2024-02-14T15:16:10;11.60;99.90
51825;DHT22;37879;52.986;6.282;2024-02-14T15:18:35;11.60;99.90
51825;DHT22;37879;52.986;6.282;2024-02-14T15:21:02;11.50;99.90
51825;DHT22;37879;52.986;6.282;2024-02-14T15:23:28;11.50;99.90
51825;DHT22;37879;52.986;6.282;2024-02-14T15:25:54;11.50;99.90
51825;DHT22;37879;52.986;6.282;2024-02-14T15:28:28;11.50;99.90
51825;DHT22;37879;52.986;6.282;2024-02-14T15:30:59;11.50;99.90
51825;DHT22;37879;52.986;6.282;2024-02-14T15:33:43;11.50;99.90
51825;DHT22;37879;52.986;6.282;2024-02-14T15:36:09;11.50;99.90
51825;DHT22;37879;52.986;6.282;2024-02-14T15:38:38;11.50;99.90
51825;DHT22;37879;52.986;6.282;2024-02-14T15:41:04;11.50;99.90